Time;durP1;ratioP1;P1;durP2;ratioP2;P2;SDS_P1;SDS_P2;PMS_P1;PMS_P2;Temp;Humidity;BMP_temperature;BMP_pressure;BME280_temperature;BME280_humidity;BME280_pressure;Samples;Min_cycle;Max_cycle;Signal;HPM_P1;HPM_P2
2022/01/13 00:01:54;;;;;;;43.23;28.17;;;;;;;;;;5007566;28;20109;-63
2022/01/13 00:04:20;;;;;;;45.20;28.20;;;;;;;;;;5012443;28;20026;-63
2022/01/13 00:06:47;;;;;;;43.57;27.83;;;;;;;;;;5000934;28;20112;-63
2022/01/13 00:09:14;;;;;;;38.73;27.40;;;;;;;;;;5010978;28;20026;-63
2022/01/13 00:11:40;;;;;;;41.67;28.67;;;;;;;;;;4994673;28;20034;-63
2022/01/13 00:24:42;;;;;;;43.67;28.90;;;;;;;;;;5014450;28;20022;-63
2022/01/13 00:27:12;;;;;;;44.20;28.30;;;;;;;;;;5015315;28;20100;-63
2022/01/13 00:29:41;;;;;;;45.60;28.37;;;;;;;;;;5012634;28;20018;-64
2022/01/13 00:32:07;;;;;;;42.67;28.13;;;;;;;;;;5011278;28;20475;-62
2022/01/13 00:34:33;;;;;;;40.23;28.33;;;;;;;;;;5015531;28;20034;-62
2022/01/13 00:36:59;;;;;;;45.60;29.10;;;;;;;;;;4997480;28;20387;-61
2022/01/13 00:39:25;;;;;;;43.60;27.33;;;;;;;;;;4996573;28;20063;-61
2022/01/13 00:41:52;;;;;;;43.90;27.47;;;;;;;;;;5010465;28;20029;-62
2022/01/13 00:44:21;;;;;;;38.77;26.53;;;;;;;;;;5013575;28;20025;-62
2022/01/13 00:46:54;;;;;;;40.90;27.87;;;;;;;;;;5005638;28;20394;-62
2022/01/13 00:49:20;;;;;;;43.17;26.50;;;;;;;;;;5015299;28;20021;-62
2022/01/13 00:51:46;;;;;;;40.30;27.63;;;;;;;;;;5011003;28;20036;-62
2022/01/13 00:54:12;;;;;;;45.73;28.13;;;;;;;;;;5000150;28;20062;-62
2022/01/13 00:56:38;;;;;;;39.73;26.67;;;;;;;;;;5000211;28;20034;-62
2022/01/13 00:59:07;;;;;;;42.27;27.93;;;;;;;;;;5015677;28;20037;-62
2022/01/13 01:01:37;;;;;;;40.27;27.50;;;;;;;;;;5014459;28;20026;-62
2022/01/13 01:04:06;;;;;;;40.63;26.83;;;;;;;;;;4993252;28;20448;-62
2022/01/13 01:06:33;;;;;;;39.80;26.47;;;;;;;;;;5011119;28;20418;-62
2022/01/13 01:08:59;;;;;;;38.70;25.57;;;;;;;;;;5015020;28;20030;-62
2022/01/13 01:11:26;;;;;;;36.00;25.77;;;;;;;;;;5003652;28;20042;-62
2022/01/13 01:13:53;;;;;;;41.20;25.40;;;;;;;;;;5013042;28;20061;-62
2022/01/13 01:16:19;;;;;;;37.70;25.37;;;;;;;;;;5009244;28;20521;-62
2022/01/13 01:31:39;;;;;;;36.50;24.53;;;;;;;;;;5002288;28;20117;-63
2022/01/13 01:36:37;;;;;;;30.47;22.63;;;;;;;;;;5014640;28;20498;-63
2022/01/13 01:39:04;;;;;;;33.63;23.57;;;;;;;;;;5007577;28;20065;-63
2022/01/13 01:41:34;;;;;;;36.93;23.70;;;;;;;;;;5014755;28;20088;-63
2022/01/13 01:44:05;;;;;;;33.50;23.50;;;;;;;;;;5012202;28;20046;-63
2022/01/13 01:46:34;;;;;;;32.47;22.27;;;;;;;;;;4995117;28;20113;-63
2022/01/13 01:49:04;;;;;;;30.57;22.77;;;;;;;;;;5002985;28;20038;-63
2022/01/13 01:51:30;;;;;;;29.77;20.17;;;;;;;;;;5013484;28;20021;-63
2022/01/13 01:53:56;;;;;;;30.70;22.13;;;;;;;;;;5008648;28;20069;-63
2022/01/13 01:56:22;;;;;;;28.83;19.83;;;;;;;;;;5014414;28;20549;-63
2022/01/13 01:58:49;;;;;;;26.63;20.70;;;;;;;;;;5005142;28;20042;-63
2022/01/13 02:01:15;;;;;;;28.30;20.67;;;;;;;;;;5013250;28;20088;-63
2022/01/13 02:03:41;;;;;;;30.53;19.60;;;;;;;;;;5010803;28;20034;-63
2022/01/13 02:06:08;;;;;;;32.83;19.63;;;;;;;;;;4996923;28;20024;-63
2022/01/13 02:08:34;;;;;;;31.57;20.23;;;;;;;;;;5006801;28;20034;-63
2022/01/13 02:11:00;;;;;;;28.50;19.60;;;;;;;;;;5012109;28;20106;-63
2022/01/13 02:13:33;;;;;;;33.17;19.93;;;;;;;;;;5004235;28;20054;-63
2022/01/13 02:18:25;;;;;;;30.43;18.50;;;;;;;;;;5008989;28;20169;-62
2022/01/13 02:20:55;;;;;;;29.37;20.00;;;;;;;;;;4995343;28;20041;-62
2022/01/13 02:23:34;;;;;;;27.47;19.77;;;;;;;;;;5010164;28;20026;-62
2022/01/13 02:26:00;;;;;;;27.57;18.83;;;;;;;;;;4995911;28;20108;-62
2022/01/13 02:28:27;;;;;;;27.77;18.67;;;;;;;;;;5008690;28;20022;-63
2022/01/13 02:30:53;;;;;;;29.80;19.73;;;;;;;;;;4992634;28;20029;-62
2022/01/13 02:33:19;;;;;;;30.03;19.40;;;;;;;;;;5010617;28;20030;-63
2022/01/13 02:35:45;;;;;;;33.40;19.70;;;;;;;;;;5013685;28;20025;-63
2022/01/13 02:38:12;;;;;;;27.03;19.20;;;;;;;;;;5011049;28;20033;-62
2022/01/13 02:40:38;;;;;;;32.80;19.23;;;;;;;;;;5013401;28;20113;-63
2022/01/13 02:43:05;;;;;;;29.57;19.47;;;;;;;;;;5009934;28;20378;-63
2022/01/13 02:45:35;;;;;;;31.17;19.00;;;;;;;;;;4991468;28;20046;-62
2022/01/13 02:50:40;;;;;;;26.93;19.23;;;;;;;;;;5002264;28;20029;-63
2022/01/13 02:53:07;;;;;;;29.43;18.37;;;;;;;;;;5009915;28;20030;-62
2022/01/13 02:55:34;;;;;;;30.33;18.87;;;;;;;;;;5010398;28;20409;-63
2022/01/13 02:58:00;;;;;;;30.10;18.50;;;;;;;;;;5012257;28;20022;-63
2022/01/13 03:00:26;;;;;;;31.60;20.17;;;;;;;;;;5012790;28;20466;-63
2022/01/13 03:02:52;;;;;;;29.83;20.10;;;;;;;;;;5012722;28;20052;-63
2022/01/13 03:05:20;;;;;;;35.23;20.27;;;;;;;;;;5003759;28;20025;-63
2022/01/13 03:07:46;;;;;;;31.47;22.90;;;;;;;;;;5012605;28;20026;-63
2022/01/13 03:10:13;;;;;;;32.93;22.30;;;;;;;;;;5011416;28;20033;-63
2022/01/13 03:12:42;;;;;;;32.47;21.43;;;;;;;;;;5011269;28;20368;-62
2022/01/13 03:15:08;;;;;;;32.07;22.50;;;;;;;;;;5007183;28;20049;-63
2022/01/13 03:17:34;;;;;;;33.37;21.70;;;;;;;;;;5013103;28;20101;-62
2022/01/13 03:20:01;;;;;;;32.93;23.83;;;;;;;;;;4996908;28;20037;-63
2022/01/13 03:22:27;;;;;;;34.37;23.63;;;;;;;;;;4997511;28;20038;-62
2022/01/13 03:24:53;;;;;;;35.33;23.63;;;;;;;;;;5007247;28;20029;-62
2022/01/13 03:27:23;;;;;;;31.33;22.93;;;;;;;;;;5013333;28;20033;-63
2022/01/13 03:29:49;;;;;;;35.67;23.93;;;;;;;;;;4994504;28;20391;-63
2022/01/13 03:32:16;;;;;;;37.00;24.60;;;;;;;;;;5012884;28;20091;-63
2022/01/13 03:34:42;;;;;;;34.93;24.27;;;;;;;;;;5001592;28;20037;-63
2022/01/13 03:37:08;;;;;;;34.80;24.00;;;;;;;;;;5011577;28;20113;-63
2022/01/13 03:39:35;;;;;;;34.80;23.77;;;;;;;;;;5007061;28;20034;-63
2022/01/13 03:42:02;;;;;;;33.37;23.93;;;;;;;;;;5013108;28;20058;-63
2022/01/13 03:44:28;;;;;;;36.07;24.67;;;;;;;;;;5003389;28;20042;-63
2022/01/13 03:46:55;;;;;;;35.17;23.93;;;;;;;;;;4995506;28;20027;-63
2022/01/13 03:49:21;;;;;;;42.20;26.53;;;;;;;;;;5003141;28;20060;-63
2022/01/13 03:51:50;;;;;;;38.67;25.80;;;;;;;;;;5012755;28;20034;-62
2022/01/13 03:54:32;;;;;;;34.03;24.13;;;;;;;;;;5002266;28;20045;-63
2022/01/13 03:57:16;;;;;;;35.13;25.13;;;;;;;;;;4997656;28;20054;-62
2022/01/13 04:00:08;;;;;;;37.60;24.95;;;;;;;;;;5003198;28;20490;-62
2022/01/13 04:02:35;;;;;;;34.50;23.93;;;;;;;;;;4986077;28;20038;-62
2022/01/13 04:05:01;;;;;;;35.00;24.03;;;;;;;;;;5004636;28;20117;-62
2022/01/13 04:07:27;;;;;;;36.57;24.23;;;;;;;;;;5003423;28;20062;-62
2022/01/13 04:09:55;;;;;;;36.47;23.97;;;;;;;;;;4997188;28;20034;-62
2022/01/13 04:12:26;;;;;;;38.00;24.20;;;;;;;;;;5002209;28;20072;-62
2022/01/13 04:14:56;;;;;;;33.50;22.53;;;;;;;;;;5013240;28;20128;-62
2022/01/13 04:17:23;;;;;;;33.17;22.43;;;;;;;;;;5015916;28;20141;-63
2022/01/13 04:19:49;;;;;;;35.30;23.20;;;;;;;;;;5013328;28;20030;-63
2022/01/13 04:22:16;;;;;;;38.53;25.53;;;;;;;;;;5014478;28;20032;-63
2022/01/13 04:24:50;;;;;;;38.50;24.93;;;;;;;;;;4999330;28;20078;-63
2022/01/13 04:27:28;;;;;;;34.27;24.40;;;;;;;;;;5014061;28;20084;-63
2022/01/13 04:30:22;;;;;;;37.57;26.70;;;;;;;;;;5012299;28;20034;-64
2022/01/13 04:32:46;;;;;;;34.57;24.87;;;;;;;;;;5013480;28;20038;-63
2022/01/13 04:35:12;;;;;;;37.53;23.80;;;;;;;;;;5010673;28;20121;-63
2022/01/13 04:37:38;;;;;;;37.87;24.30;;;;;;;;;;5014168;28;20129;-63
2022/01/13 04:40:05;;;;;;;37.40;24.57;;;;;;;;;;5014717;28;20383;-63
2022/01/13 04:42:35;;;;;;;38.33;24.67;;;;;;;;;;5015129;28;20026;-63
2022/01/13 04:45:03;;;;;;;35.90;23.73;;;;;;;;;;5009503;28;20038;-63
2022/01/13 04:47:34;;;;;;;34.87;23.07;;;;;;;;;;5015228;28;20430;-63
2022/01/13 04:50:00;;;;;;;35.17;24.53;;;;;;;;;;5013137;28;20030;-63
2022/01/13 04:52:26;;;;;;;30.57;21.33;;;;;;;;;;5015430;28;20022;-63
2022/01/13 04:54:52;;;;;;;29.23;19.83;;;;;;;;;;5004063;28;20049;-63
2022/01/13 04:57:18;;;;;;;31.83;19.97;;;;;;;;;;5011635;28;20380;-63
2022/01/13 04:59:45;;;;;;;25.97;18.23;;;;;;;;;;5015679;28;20036;-63
2022/01/13 05:02:11;;;;;;;27.87;18.43;;;;;;;;;;5012182;28;20052;-63
2022/01/13 05:04:37;;;;;;;25.30;19.37;;;;;;;;;;5015183;28;20034;-63
2022/01/13 05:07:03;;;;;;;28.23;18.67;;;;;;;;;;5012110;28;20034;-63
2022/01/13 05:09:29;;;;;;;27.47;20.00;;;;;;;;;;5013561;28;20149;-63
2022/01/13 05:12:02;;;;;;;24.57;19.63;;;;;;;;;;5014531;28;20110;-63
2022/01/13 05:14:29;;;;;;;25.67;18.33;;;;;;;;;;5014154;28;20046;-63
2022/01/13 05:17:10;;;;;;;27.67;18.57;;;;;;;;;;5007534;28;20040;-63
2022/01/13 05:19:46;;;;;;;29.17;19.20;;;;;;;;;;4995846;28;20129;-63
2022/01/13 05:24:38;;;;;;;25.37;17.87;;;;;;;;;;5013200;28;20080;-63
2022/01/13 05:27:04;;;;;;;27.30;18.33;;;;;;;;;;5009242;28;20050;-63
2022/01/13 05:29:30;;;;;;;27.70;19.00;;;;;;;;;;5015229;28;20388;-63
2022/01/13 05:31:56;;;;;;;27.07;19.37;;;;;;;;;;5011649;28;20037;-63
2022/01/13 05:34:22;;;;;;;27.93;18.80;;;;;;;;;;5007934;28;20068;-63
2022/01/13 05:36:48;;;;;;;28.73;19.87;;;;;;;;;;5012382;28;20034;-63
2022/01/13 05:39:14;;;;;;;29.27;20.43;;;;;;;;;;5011625;28;20112;-63
2022/01/13 05:41:40;;;;;;;34.73;24.23;;;;;;;;;;5013547;28;20088;-63
2022/01/13 05:44:06;;;;;;;33.63;23.60;;;;;;;;;;4995656;28;20026;-63
2022/01/13 05:46:33;;;;;;;34.57;24.27;;;;;;;;;;5010600;28;20080;-63
2022/01/13 05:48:59;;;;;;;35.57;25.83;;;;;;;;;;5013673;28;20080;-63
2022/01/13 05:51:25;;;;;;;32.93;24.53;;;;;;;;;;5013790;28;20525;-63
2022/01/13 05:53:51;;;;;;;34.83;24.67;;;;;;;;;;5009536;28;20041;-63
2022/01/13 05:56:17;;;;;;;38.93;25.83;;;;;;;;;;5013940;28;20029;-63
2022/01/13 05:58:43;;;;;;;38.93;26.10;;;;;;;;;;5011450;28;20037;-63
2022/01/13 06:01:09;;;;;;;39.93;26.57;;;;;;;;;;5013463;28;20022;-63
2022/01/13 06:03:35;;;;;;;40.67;26.93;;;;;;;;;;5007746;28;20061;-63
2022/01/13 06:06:01;;;;;;;31.30;24.33;;;;;;;;;;5013537;28;20026;-63
2022/01/13 06:08:27;;;;;;;37.93;25.30;;;;;;;;;;5011838;28;20032;-63
2022/01/13 06:10:54;;;;;;;35.63;25.30;;;;;;;;;;4996243;28;20036;-63
2022/01/13 06:13:20;;;;;;;35.57;24.53;;;;;;;;;;5003659;28;20138;-63
2022/01/13 06:15:46;;;;;;;36.53;24.97;;;;;;;;;;5014221;28;20455;-64
2022/01/13 06:18:13;;;;;;;39.03;24.87;;;;;;;;;;5001731;28;20113;-63
2022/01/13 06:20:39;;;;;;;35.90;23.33;;;;;;;;;;4995914;28;20034;-64
2022/01/13 06:23:05;;;;;;;32.70;23.37;;;;;;;;;;5005206;28;20073;-63
2022/01/13 06:25:32;;;;;;;33.90;24.63;;;;;;;;;;5004783;28;20407;-64
2022/01/13 06:27:58;;;;;;;36.53;24.10;;;;;;;;;;5001133;28;20648;-63
2022/01/13 06:30:24;;;;;;;36.77;25.00;;;;;;;;;;5013315;28;20067;-63
2022/01/13 06:32:50;;;;;;;37.67;24.03;;;;;;;;;;4994206;28;20030;-63
2022/01/13 06:35:16;;;;;;;35.83;24.50;;;;;;;;;;4992809;28;20537;-63
2022/01/13 06:37:42;;;;;;;34.23;25.33;;;;;;;;;;5004592;28;20030;-63
2022/01/13 06:40:09;;;;;;;34.80;24.83;;;;;;;;;;5012452;28;20392;-63
2022/01/13 06:42:35;;;;;;;32.87;24.00;;;;;;;;;;5007874;28;20041;-63
2022/01/13 06:45:01;;;;;;;40.30;26.13;;;;;;;;;;5017324;28;20105;-64
2022/01/13 06:47:27;;;;;;;39.03;25.30;;;;;;;;;;5000525;28;20029;-63
2022/01/13 06:49:53;;;;;;;36.70;25.90;;;;;;;;;;5012249;28;20473;-64
2022/01/13 06:52:19;;;;;;;43.60;26.60;;;;;;;;;;5009343;28;20459;-63
2022/01/13 06:54:46;;;;;;;39.37;25.30;;;;;;;;;;4999884;28;20068;-63
2022/01/13 06:57:12;;;;;;;33.17;23.77;;;;;;;;;;5012179;28;20058;-63
2022/01/13 06:59:38;;;;;;;40.30;25.20;;;;;;;;;;5011399;28;20034;-64
2022/01/13 07:02:04;;;;;;;37.90;23.30;;;;;;;;;;4999867;28;20025;-64
2022/01/13 07:04:30;;;;;;;38.47;24.30;;;;;;;;;;4996192;28;20026;-63
2022/01/13 07:06:56;;;;;;;34.23;23.57;;;;;;;;;;5001017;28;20038;-63
2022/01/13 07:09:22;;;;;;;42.33;26.07;;;;;;;;;;5005806;28;20399;-64
2022/01/13 07:11:49;;;;;;;39.50;26.13;;;;;;;;;;5012635;28;20034;-63
2022/01/13 07:14:15;;;;;;;37.17;24.73;;;;;;;;;;5010742;28;20054;-63
2022/01/13 07:16:43;;;;;;;40.30;26.07;;;;;;;;;;5011963;28;20386;-64
2022/01/13 07:19:10;;;;;;;41.27;26.87;;;;;;;;;;5006227;28;20041;-64
2022/01/13 07:21:37;;;;;;;39.20;26.47;;;;;;;;;;5008999;28;20105;-64
2022/01/13 07:24:03;;;;;;;36.43;25.87;;;;;;;;;;5009544;28;20036;-64
2022/01/13 07:26:29;;;;;;;34.93;24.47;;;;;;;;;;5011892;28;20243;-64
2022/01/13 07:28:55;;;;;;;43.53;26.50;;;;;;;;;;5005897;28;20119;-64
2022/01/13 07:31:21;;;;;;;45.03;25.37;;;;;;;;;;5012672;28;20033;-63
2022/01/13 07:33:47;;;;;;;41.93;26.00;;;;;;;;;;4996816;28;20132;-64
2022/01/13 07:36:14;;;;;;;44.60;27.07;;;;;;;;;;5017274;28;20081;-63
2022/01/13 07:38:40;;;;;;;37.70;26.37;;;;;;;;;;4998199;28;20037;-64
2022/01/13 07:41:06;;;;;;;45.80;27.23;;;;;;;;;;5017673;28;20434;-64
2022/01/13 07:43:32;;;;;;;44.23;26.53;;;;;;;;;;4995869;28;20080;-63
2022/01/13 07:45:58;;;;;;;39.80;27.17;;;;;;;;;;5015225;28;20440;-63
2022/01/13 07:48:24;;;;;;;37.80;26.20;;;;;;;;;;5014321;28;20487;-63
2022/01/13 07:50:51;;;;;;;43.07;26.00;;;;;;;;;;5015899;28;20128;-64
2022/01/13 07:53:17;;;;;;;37.00;25.37;;;;;;;;;;5008586;28;20494;-64
2022/01/13 07:55:43;;;;;;;41.03;25.43;;;;;;;;;;5012512;28;20052;-64
2022/01/13 07:58:09;;;;;;;42.60;25.97;;;;;;;;;;5009541;28;20025;-64
2022/01/13 08:00:35;;;;;;;42.43;26.03;;;;;;;;;;5009394;28;20033;-64
2022/01/13 08:03:02;;;;;;;42.60;25.07;;;;;;;;;;5013947;28;20497;-64
2022/01/13 08:05:28;;;;;;;37.07;24.57;;;;;;;;;;5012267;28;20383;-63
2022/01/13 08:07:54;;;;;;;36.90;25.63;;;;;;;;;;5014617;28;20037;-63
2022/01/13 08:10:20;;;;;;;40.60;23.73;;;;;;;;;;5014599;28;20030;-64
2022/01/13 08:12:46;;;;;;;41.60;23.57;;;;;;;;;;5008287;28;20070;-63
2022/01/13 08:15:14;;;;;;;34.70;22.23;;;;;;;;;;5013132;28;20037;-63
2022/01/13 08:20:28;;;;;;;33.87;22.80;;;;;;;;;;5006705;28;20041;-64
2022/01/13 08:22:54;;;;;;;34.13;22.00;;;;;;;;;;5009340;28;20040;-64
2022/01/13 08:25:21;;;;;;;39.60;23.13;;;;;;;;;;5013706;28;20108;-64
2022/01/13 08:27:47;;;;;;;32.33;22.37;;;;;;;;;;5011114;28;20041;-65
2022/01/13 08:30:25;;;;;;;32.80;21.90;;;;;;;;;;5007084;28;20030;-63
2022/01/13 08:32:51;;;;;;;30.87;22.30;;;;;;;;;;5010395;28;20029;-63
2022/01/13 08:35:17;;;;;;;35.70;22.70;;;;;;;;;;5010873;28;20034;-63
2022/01/13 08:37:43;;;;;;;33.77;21.90;;;;;;;;;;5013888;28;20096;-63
2022/01/13 08:40:10;;;;;;;42.57;27.10;;;;;;;;;;5009678;28;20124;-63
2022/01/13 08:45:40;;;;;;;42.03;27.43;;;;;;;;;;5007924;28;20044;-63
2022/01/13 08:48:06;;;;;;;48.30;29.90;;;;;;;;;;5009128;28;20040;-63
2022/01/13 08:50:32;;;;;;;53.93;31.07;;;;;;;;;;5012457;28;20112;-63
2022/01/13 08:52:59;;;;;;;45.50;30.63;;;;;;;;;;5012416;28;20112;-63
2022/01/13 08:55:25;;;;;;;41.37;30.17;;;;;;;;;;5012205;28;20026;-63
2022/01/13 08:57:52;;;;;;;45.60;31.17;;;;;;;;;;4992952;28;20026;-63
2022/01/13 09:00:18;;;;;;;47.03;32.50;;;;;;;;;;5012198;28;20025;-63
2022/01/13 09:02:44;;;;;;;50.30;31.93;;;;;;;;;;5014226;28;20017;-63
2022/01/13 09:05:25;;;;;;;44.17;30.73;;;;;;;;;;4988894;28;20108;-63
2022/01/13 09:07:51;;;;;;;45.73;30.10;;;;;;;;;;5008833;28;20135;-63
2022/01/13 09:10:18;;;;;;;43.43;31.50;;;;;;;;;;5012353;28;20497;-63
2022/01/13 09:12:45;;;;;;;51.37;31.37;;;;;;;;;;4993181;28;20475;-63
2022/01/13 09:15:16;;;;;;;48.47;32.70;;;;;;;;;;5006046;28;20083;-63
2022/01/13 09:17:44;;;;;;;45.07;32.17;;;;;;;;;;5006852;28;20022;-63
2022/01/13 09:20:12;;;;;;;49.87;32.43;;;;;;;;;;4989891;28;20488;-63
2022/01/13 09:22:39;;;;;;;47.70;32.60;;;;;;;;;;5006553;28;20399;-63
2022/01/13 09:25:06;;;;;;;54.13;33.83;;;;;;;;;;5004336;28;20042;-63
2022/01/13 09:27:33;;;;;;;51.67;34.97;;;;;;;;;;5001015;28;20049;-63
2022/01/13 09:29:59;;;;;;;51.40;35.23;;;;;;;;;;5006080;28;20040;-63
2022/01/13 09:32:26;;;;;;;51.67;35.77;;;;;;;;;;5011137;28;20033;-63
2022/01/13 09:34:52;;;;;;;54.10;35.30;;;;;;;;;;5012153;28;20069;-63
2022/01/13 09:37:18;;;;;;;52.97;35.43;;;;;;;;;;5007066;28;20041;-64
2022/01/13 09:39:44;;;;;;;55.00;36.37;;;;;;;;;;5008344;28;20022;-63
2022/01/13 09:42:10;;;;;;;51.70;35.10;;;;;;;;;;5006133;28;20032;-63
2022/01/13 09:44:36;;;;;;;57.93;38.60;;;;;;;;;;5007908;28;20529;-63
2022/01/13 09:47:04;;;;;;;51.03;35.13;;;;;;;;;;5009965;28;20048;-63
2022/01/13 09:49:31;;;;;;;50.20;35.33;;;;;;;;;;5007554;28;20038;-63
2022/01/13 09:51:57;;;;;;;51.03;35.43;;;;;;;;;;5009558;28;20053;-63
2022/01/13 09:54:23;;;;;;;60.53;36.13;;;;;;;;;;5005554;28;20068;-63
2022/01/13 09:56:49;;;;;;;54.07;36.47;;;;;;;;;;5005087;28;20109;-63
2022/01/13 09:59:15;;;;;;;50.40;35.20;;;;;;;;;;5006221;28;20018;-63
2022/01/13 10:01:41;;;;;;;57.10;37.60;;;;;;;;;;5007928;28;20029;-63
2022/01/13 10:04:07;;;;;;;51.57;36.17;;;;;;;;;;5006738;28;20033;-63
2022/01/13 10:06:41;;;;;;;52.90;35.83;;;;;;;;;;5008821;28;20168;-63
2022/01/13 10:09:07;;;;;;;49.03;35.30;;;;;;;;;;5006853;28;20033;-63
2022/01/13 10:17:09;;;;;;;53.33;35.33;;;;;;;;;;5009107;28;20092;-64
2022/01/13 10:19:36;;;;;;;50.03;36.37;;;;;;;;;;5005142;28;20180;-62
2022/01/13 10:22:28;;;;;;;59.07;35.67;;;;;;;;;;4989870;28;20085;-62
2022/01/13 10:24:57;;;;;;;59.33;38.87;;;;;;;;;;4997169;28;20054;-62
2022/01/13 10:27:28;;;;;;;58.33;38.50;;;;;;;;;;5000373;28;20097;-63
2022/01/13 10:29:59;;;;;;;55.63;37.47;;;;;;;;;;5005789;28;20030;-63
2022/01/13 10:32:27;;;;;;;58.23;37.80;;;;;;;;;;5005351;28;20018;-63
2022/01/13 10:35:01;;;;;;;50.93;37.70;;;;;;;;;;4987504;28;20038;-63
2022/01/13 10:37:34;;;;;;;56.73;36.63;;;;;;;;;;5009525;28;20364;-63
2022/01/13 10:40:04;;;;;;;53.57;36.73;;;;;;;;;;4990475;28;20030;-63
2022/01/13 10:45:06;;;;;;;48.60;36.50;;;;;;;;;;5007045;28;20059;-63
2022/01/13 10:47:33;;;;;;;52.47;38.13;;;;;;;;;;5002516;28;20394;-63
2022/01/13 10:50:06;;;;;;;55.97;36.73;;;;;;;;;;5005753;28;20038;-63
2022/01/13 10:52:32;;;;;;;46.50;35.87;;;;;;;;;;5005892;28;20472;-63
2022/01/13 10:55:03;;;;;;;51.37;36.70;;;;;;;;;;5008524;28;20041;-63
2022/01/13 10:57:30;;;;;;;53.40;37.20;;;;;;;;;;5006207;28;20034;-63
2022/01/13 10:59:56;;;;;;;50.50;36.37;;;;;;;;;;5004723;28;20034;-63
2022/01/13 11:02:23;;;;;;;57.93;38.90;;;;;;;;;;4988993;28;20026;-63
2022/01/13 11:04:49;;;;;;;52.27;36.83;;;;;;;;;;5003942;28;20030;-63
2022/01/13 11:07:21;;;;;;;48.63;36.23;;;;;;;;;;4999608;28;20053;-62
2022/01/13 11:09:52;;;;;;;57.50;34.70;;;;;;;;;;5006801;28;20021;-62
2022/01/13 11:12:18;;;;;;;49.53;37.03;;;;;;;;;;5009968;28;20041;-62
2022/01/13 11:14:45;;;;;;;51.40;35.77;;;;;;;;;;4979304;28;20045;-62
2022/01/13 11:17:11;;;;;;;50.83;35.77;;;;;;;;;;5004679;28;20022;-62
2022/01/13 11:19:44;;;;;;;54.77;37.07;;;;;;;;;;5005544;28;20018;-63
2022/01/13 11:22:12;;;;;;;51.93;36.50;;;;;;;;;;5009477;28;20030;-63
2022/01/13 11:24:39;;;;;;;48.57;36.47;;;;;;;;;;5001486;28;20031;-62
2022/01/13 11:27:06;;;;;;;52.77;36.40;;;;;;;;;;5005506;28;20034;-63
2022/01/13 11:29:32;;;;;;;49.73;35.90;;;;;;;;;;4991879;28;20038;-63
2022/01/13 11:31:58;;;;;;;49.90;36.37;;;;;;;;;;5009796;28;20100;-63
2022/01/13 11:34:24;;;;;;;52.47;35.90;;;;;;;;;;5011360;28;20038;-63
2022/01/13 11:36:51;;;;;;;52.07;36.80;;;;;;;;;;4979260;28;20118;-64
2022/01/13 11:39:17;;;;;;;47.57;35.63;;;;;;;;;;5011631;28;20033;-63
2022/01/13 11:54:06;;;;;;;45.43;34.23;;;;;;;;;;4949284;28;20067;-62
2022/01/13 11:56:32;;;;;;;43.90;32.90;;;;;;;;;;5007109;28;20022;-62
2022/01/13 11:58:58;;;;;;;52.90;35.53;;;;;;;;;;5008164;28;20046;-62
2022/01/13 12:01:32;;;;;;;51.63;36.00;;;;;;;;;;5010325;28;20022;-62
2022/01/13 12:04:00;;;;;;;49.17;35.83;;;;;;;;;;5009077;28;20398;-63
2022/01/13 12:06:38;;;;;;;50.33;35.70;;;;;;;;;;5008019;28;20391;-63
2022/01/13 12:09:05;;;;;;;46.97;34.13;;;;;;;;;;5008296;28;20387;-63
2022/01/13 12:11:50;;;;;;;53.23;35.13;;;;;;;;;;5011663;28;20084;-63
2022/01/13 12:14:28;;;;;;;42.90;33.20;;;;;;;;;;5004306;28;20384;-64
2022/01/13 12:16:59;;;;;;;46.70;34.67;;;;;;;;;;5005438;28;20030;-63
2022/01/13 12:19:31;;;;;;;49.23;33.97;;;;;;;;;;5006715;28;20034;-64
2022/01/13 12:22:04;;;;;;;48.43;32.10;;;;;;;;;;5013993;28;20873;-64
2022/01/13 12:24:45;;;;;;;46.50;31.90;;;;;;;;;;5007017;28;20026;-63
2022/01/13 12:27:11;;;;;;;43.30;31.63;;;;;;;;;;5006252;28;20027;-64
2022/01/13 12:29:44;;;;;;;40.17;29.23;;;;;;;;;;5007582;28;20033;-64
2022/01/13 12:32:10;;;;;;;39.13;28.70;;;;;;;;;;4995293;28;20161;-64
2022/01/13 12:34:39;;;;;;;38.40;27.63;;;;;;;;;;5001837;28;20117;-63
2022/01/13 12:37:14;;;;;;;42.20;28.47;;;;;;;;;;5010531;28;20025;-63
2022/01/13 12:39:52;;;;;;;41.87;27.43;;;;;;;;;;4998520;28;20030;-64
2022/01/13 12:42:24;;;;;;;38.23;27.07;;;;;;;;;;4998251;28;20601;-64
2022/01/13 12:47:36;;;;;;;26.23;20.10;;;;;;;;;;4996065;28;20049;-64
2022/01/13 12:50:11;;;;;;;34.77;25.47;;;;;;;;;;4996490;28;20030;-63
2022/01/13 12:52:37;;;;;;;34.77;23.90;;;;;;;;;;4995994;28;20030;-64
2022/01/13 12:55:04;;;;;;;39.33;24.23;;;;;;;;;;4982428;28;20084;-63
2022/01/13 12:57:30;;;;;;;34.07;25.37;;;;;;;;;;5009557;28;20088;-63
2022/01/13 12:59:56;;;;;;;37.50;23.80;;;;;;;;;;5010169;28;20402;-63
2022/01/13 13:02:22;;;;;;;35.47;24.57;;;;;;;;;;5014323;28;20068;-63
2022/01/13 13:04:48;;;;;;;33.20;24.73;;;;;;;;;;5014526;28;20029;-63
2022/01/13 13:07:14;;;;;;;36.40;24.07;;;;;;;;;;5006316;28;20097;-64
2022/01/13 13:09:40;;;;;;;39.10;24.73;;;;;;;;;;5005871;28;20105;-64
2022/01/13 13:12:11;;;;;;;32.57;23.33;;;;;;;;;;5005297;28;20026;-63
2022/01/13 13:17:31;;;;;;;33.13;24.17;;;;;;;;;;5012353;28;20033;-64
2022/01/13 13:19:57;;;;;;;29.50;21.67;;;;;;;;;;5006317;28;20081;-63
2022/01/13 13:22:23;;;;;;;31.80;21.80;;;;;;;;;;5010389;28;20026;-64
2022/01/13 13:24:49;;;;;;;29.73;21.97;;;;;;;;;;5012270;28;20068;-63
2022/01/13 13:27:27;;;;;;;30.10;22.10;;;;;;;;;;5014678;28;20049;-63
2022/01/13 13:29:53;;;;;;;32.73;21.80;;;;;;;;;;5005862;28;20092;-63
2022/01/13 13:32:19;;;;;;;35.40;21.43;;;;;;;;;;5011064;28;20038;-63
2022/01/13 13:34:45;;;;;;;28.13;20.77;;;;;;;;;;5010905;28;20092;-63
2022/01/13 13:37:12;;;;;;;31.00;20.60;;;;;;;;;;5014165;28;20030;-63
2022/01/13 13:39:38;;;;;;;30.33;20.47;;;;;;;;;;4991780;28;20037;-63
2022/01/13 13:42:04;;;;;;;27.53;19.07;;;;;;;;;;4990356;28;20053;-62
2022/01/13 13:44:37;;;;;;;32.63;21.00;;;;;;;;;;5004332;28;20034;-63
2022/01/13 13:47:07;;;;;;;30.37;21.37;;;;;;;;;;5009209;28;20026;-64
2022/01/13 13:49:34;;;;;;;31.00;20.60;;;;;;;;;;5008817;28;20037;-64
2022/01/13 13:52:01;;;;;;;30.87;21.30;;;;;;;;;;5009238;28;20490;-64
2022/01/13 13:54:37;;;;;;;33.60;21.80;;;;;;;;;;5000273;28;20037;-64
2022/01/13 13:57:10;;;;;;;31.20;21.00;;;;;;;;;;5010356;28;20388;-64
2022/01/13 13:59:50;;;;;;;32.47;21.80;;;;;;;;;;5008739;28;20503;-64
2022/01/13 14:02:23;;;;;;;29.40;20.07;;;;;;;;;;5013388;28;20018;-64
2022/01/13 14:04:53;;;;;;;27.60;19.67;;;;;;;;;;5003663;28;20376;-64
2022/01/13 14:07:25;;;;;;;28.97;19.93;;;;;;;;;;5011582;28;20045;-64
2022/01/13 14:09:59;;;;;;;29.80;19.93;;;;;;;;;;4992240;28;20035;-64
2022/01/13 14:12:26;;;;;;;31.20;20.67;;;;;;;;;;5007960;28;20031;-64
2022/01/13 14:15:15;;;;;;;37.57;20.97;;;;;;;;;;5004492;28;20050;-64
2022/01/13 14:17:41;;;;;;;28.67;19.37;;;;;;;;;;5014033;28;20465;-64
2022/01/13 14:20:07;;;;;;;26.90;19.17;;;;;;;;;;5012273;28;20028;-64
2022/01/13 14:22:33;;;;;;;24.63;18.23;;;;;;;;;;5001133;28;20030;-64
2022/01/13 14:24:59;;;;;;;29.20;18.93;;;;;;;;;;5010710;28;20041;-64
2022/01/13 14:27:27;;;;;;;26.40;18.03;;;;;;;;;;5013535;28;20101;-62
2022/01/13 14:29:53;;;;;;;30.67;19.87;;;;;;;;;;5011673;28;20034;-63
2022/01/13 14:32:20;;;;;;;26.60;18.10;;;;;;;;;;5012760;28;20030;-63
2022/01/13 14:34:51;;;;;;;28.03;18.10;;;;;;;;;;5005937;28;20038;-63
2022/01/13 14:37:17;;;;;;;26.53;18.63;;;;;;;;;;5010359;28;20054;-63
2022/01/13 14:39:43;;;;;;;27.20;18.17;;;;;;;;;;5010398;28;20514;-63
2022/01/13 14:42:14;;;;;;;29.20;18.03;;;;;;;;;;5003043;28;20037;-63
2022/01/13 14:44:41;;;;;;;29.07;17.50;;;;;;;;;;5009258;28;20026;-63
2022/01/13 14:47:07;;;;;;;23.33;16.97;;;;;;;;;;5011516;28;20385;-63
2022/01/13 14:49:36;;;;;;;29.10;17.40;;;;;;;;;;5011009;28;20026;-63
2022/01/13 14:52:06;;;;;;;25.67;16.87;;;;;;;;;;5004400;28;20174;-64
2022/01/13 14:54:33;;;;;;;26.03;16.80;;;;;;;;;;5005125;28;20034;-64
2022/01/13 14:56:59;;;;;;;26.90;16.83;;;;;;;;;;4976776;28;20068;-64
2022/01/13 14:59:25;;;;;;;23.50;16.63;;;;;;;;;;5005881;28;20382;-64
2022/01/13 15:02:10;;;;;;;23.77;17.70;;;;;;;;;;5009998;28;20026;-63
2022/01/13 15:04:36;;;;;;;354.52;55.55;;;;;;;;;;5008361;28;20022;-64
2022/01/13 15:07:02;;;;;;;131.80;28.67;;;;;;;;;;4994637;28;20449;-63
2022/01/13 15:09:28;;;;;;;29.13;18.97;;;;;;;;;;4998194;28;20030;-63
2022/01/13 15:11:55;;;;;;;30.27;19.03;;;;;;;;;;4999688;28;20375;-63
2022/01/13 15:14:21;;;;;;;25.30;18.50;;;;;;;;;;5009604;28;20088;-64
2022/01/13 15:16:47;;;;;;;25.90;17.73;;;;;;;;;;5009509;28;20383;-63
2022/01/13 15:19:15;;;;;;;24.33;16.77;;;;;;;;;;5011881;28;20041;-63
2022/01/13 15:21:44;;;;;;;26.93;17.53;;;;;;;;;;5003402;28;20553;-63
2022/01/13 15:24:10;;;;;;;28.87;18.17;;;;;;;;;;5011900;28;20022;-64
2022/01/13 15:26:36;;;;;;;34.37;18.83;;;;;;;;;;5006341;28;20026;-64